sensor_id;sensor_type;location;lat;lon;timestamp;temperature;humidity
8709;DHT22;4391;48.678;9.280;2023-02-28T00:00:50;-2.80;1.00
8709;DHT22;4391;48.678;9.280;2023-02-28T00:03:17;-2.80;1.00
8709;DHT22;4391;48.678;9.280;2023-02-28T00:05:44;-2.90;1.00
8709;DHT22;4391;48.678;9.280;2023-02-28T00:08:11;-2.90;1.00
8709;DHT22;4391;48.678;9.280;2023-02-28T00:10:38;-2.90;99.90
8709;DHT22;4391;48.678;9.280;2023-02-28T00:13:07;-2.80;1.00
8709;DHT22;4391;48.678;9.280;2023-02-28T00:15:34;-2.80;22.40
8709;DHT22;4391;48.678;9.280;2023-02-28T00:18:01;-2.90;46.60
8709;DHT22;4391;48.678;9.280;2023-02-28T00:20:28;-3.00;99.90
8709;DHT22;4391;48.678;9.280;2023-02-28T00:22:55;-3.00;99.90
8709;DHT22;4391;48.678;9.280;2023-02-28T00:25:24;-3.00;1.00
8709;DHT22;4391;48.678;9.280;2023-02-28T00:27:51;-3.00;1.00
8709;DHT22;4391;48.678;9.280;2023-02-28T00:30:21;-3.00;99.90
8709;DHT22;4391;48.678;9.280;2023-02-28T00:32:49;-2.90;1.00
8709;DHT22;4391;48.678;9.280;2023-02-28T00:35:18;-2.90;99.90
8709;DHT22;4391;48.678;9.280;2023-02-28T00:37:45;-2.90;99.90
8709;DHT22;4391;48.678;9.280;2023-02-28T00:40:12;-2.90;99.90
8709;DHT22;4391;48.678;9.280;2023-02-28T00:42:39;-2.90;1.00
8709;DHT22;4391;48.678;9.280;2023-02-28T00:45:07;-2.90;99.90
8709;DHT22;4391;48.678;9.280;2023-02-28T00:47:36;-2.90;1.00
8709;DHT22;4391;48.678;9.280;2023-02-28T00:50:03;-3.00;1.00
8709;DHT22;4391;48.678;9.280;2023-02-28T00:52:30;-3.00;1.00
8709;DHT22;4391;48.678;9.280;2023-02-28T00:54:57;-3.00;1.00
8709;DHT22;4391;48.678;9.280;2023-02-28T00:57:24;-3.00;1.00
8709;DHT22;4391;48.678;9.280;2023-02-28T00:59:51;-3.00;13.80
8709;DHT22;4391;48.678;9.280;2023-02-28T01:02:19;-3.00;5.10
8709;DHT22;4391;48.678;9.280;2023-02-28T01:04:48;-3.10;1.00
8709;DHT22;4391;48.678;9.280;2023-02-28T01:07:15;-3.10;99.90
8709;DHT22;4391;48.678;9.280;2023-02-28T01:09:42;-3.00;1.00
8709;DHT22;4391;48.678;9.280;2023-02-28T01:12:09;-2.90;1.00
8709;DHT22;4391;48.678;9.280;2023-02-28T01:14:36;-2.90;1.00
8709;DHT22;4391;48.678;9.280;2023-02-28T01:17:03;-3.00;1.00
8709;DHT22;4391;48.678;9.280;2023-02-28T01:19:30;-3.00;1.00
8709;DHT22;4391;48.678;9.280;2023-02-28T01:22:00;-2.90;1.00
8709;DHT22;4391;48.678;9.280;2023-02-28T01:24:27;-2.90;1.00
8709;DHT22;4391;48.678;9.280;2023-02-28T01:26:54;-2.80;1.00
8709;DHT22;4391;48.678;9.280;2023-02-28T01:29:21;-2.80;1.00
8709;DHT22;4391;48.678;9.280;2023-02-28T01:31:48;-2.90;1.00
8709;DHT22;4391;48.678;9.280;2023-02-28T01:34:15;-2.90;1.00
8709;DHT22;4391;48.678;9.280;2023-02-28T01:36:41;-2.90;99.90
8709;DHT22;4391;48.678;9.280;2023-02-28T01:39:10;-2.90;1.00
8709;DHT22;4391;48.678;9.280;2023-02-28T01:41:38;-2.90;99.90
8709;DHT22;4391;48.678;9.280;2023-02-28T01:44:07;-2.80;99.90
8709;DHT22;4391;48.678;9.280;2023-02-28T01:46:35;-2.80;99.90
8709;DHT22;4391;48.678;9.280;2023-02-28T01:49:07;-2.80;1.00
8709;DHT22;4391;48.678;9.280;2023-02-28T01:51:39;-2.80;99.90
8709;DHT22;4391;48.678;9.280;2023-02-28T01:54:14;-2.80;1.00
8709;DHT22;4391;48.678;9.280;2023-02-28T01:56:47;-2.80;1.00
8709;DHT22;4391;48.678;9.280;2023-02-28T01:59:19;-2.80;99.90
8709;DHT22;4391;48.678;9.280;2023-02-28T02:01:48;-2.90;99.90
8709;DHT22;4391;48.678;9.280;2023-02-28T02:04:15;-2.90;1.00
8709;DHT22;4391;48.678;9.280;2023-02-28T02:06:44;-2.90;99.90
8709;DHT22;4391;48.678;9.280;2023-02-28T02:09:13;-2.90;99.90
8709;DHT22;4391;48.678;9.280;2023-02-28T02:11:41;-3.00;99.90
8709;DHT22;4391;48.678;9.280;2023-02-28T02:17:11;-3.00;99.90
8709;DHT22;4391;48.678;9.280;2023-02-28T02:23:06;-2.90;99.90
8709;DHT22;4391;48.678;9.280;2023-02-28T02:25:41;-2.80;1.00
8709;DHT22;4391;48.678;9.280;2023-02-28T02:28:40;-2.80;99.90
8709;DHT22;4391;48.678;9.280;2023-02-28T02:31:26;-2.70;99.90
8709;DHT22;4391;48.678;9.280;2023-02-28T02:34:26;-2.60;99.90
8709;DHT22;4391;48.678;9.280;2023-02-28T02:37:03;-2.60;1.00
8709;DHT22;4391;48.678;9.280;2023-02-28T02:39:40;-2.50;99.90
8709;DHT22;4391;48.678;9.280;2023-02-28T02:42:14;-2.40;82.00
8709;DHT22;4391;48.678;9.280;2023-02-28T02:44:45;-2.40;1.00
8709;DHT22;4391;48.678;9.280;2023-02-28T02:47:16;-2.30;99.90
8709;DHT22;4391;48.678;9.280;2023-02-28T02:49:48;-2.30;1.00
8709;DHT22;4391;48.678;9.280;2023-02-28T02:52:20;-2.30;1.00
8709;DHT22;4391;48.678;9.280;2023-02-28T02:54:49;-2.30;99.90
8709;DHT22;4391;48.678;9.280;2023-02-28T02:57:23;-2.30;2.00
8709;DHT22;4391;48.678;9.280;2023-02-28T02:59:53;-2.40;1.00
8709;DHT22;4391;48.678;9.280;2023-02-28T03:02:23;-2.40;99.90
8709;DHT22;4391;48.678;9.280;2023-02-28T03:04:53;-2.40;99.90
8709;DHT22;4391;48.678;9.280;2023-02-28T03:07:26;-2.40;1.00
8709;DHT22;4391;48.678;9.280;2023-02-28T03:09:54;-2.40;1.00
8709;DHT22;4391;48.678;9.280;2023-02-28T03:12:23;-2.50;99.90
8709;DHT22;4391;48.678;9.280;2023-02-28T03:14:58;-2.40;99.90
8709;DHT22;4391;48.678;9.280;2023-02-28T03:17:50;-2.50;99.90
8709;DHT22;4391;48.678;9.280;2023-02-28T03:20:32;-2.40;99.90
8709;DHT22;4391;48.678;9.280;2023-02-28T03:23:10;-2.40;92.90
8709;DHT22;4391;48.678;9.280;2023-02-28T03:25:51;-2.30;99.90
8709;DHT22;4391;48.678;9.280;2023-02-28T03:28:27;-2.20;99.90
8709;DHT22;4391;48.678;9.280;2023-02-28T03:31:00;-2.20;99.90
8709;DHT22;4391;48.678;9.280;2023-02-28T03:33:32;-2.10;1.00
8709;DHT22;4391;48.678;9.280;2023-02-28T03:36:04;-2.10;99.90
8709;DHT22;4391;48.678;9.280;2023-02-28T03:38:35;-2.10;96.40
8709;DHT22;4391;48.678;9.280;2023-02-28T03:41:08;-2.10;99.90
8709;DHT22;4391;48.678;9.280;2023-02-28T03:43:40;-2.00;5.10
8709;DHT22;4391;48.678;9.280;2023-02-28T03:46:10;-2.00;40.50
8709;DHT22;4391;48.678;9.280;2023-02-28T03:48:42;-2.00;99.90
8709;DHT22;4391;48.678;9.280;2023-02-28T03:51:16;-2.00;1.00
8709;DHT22;4391;48.678;9.280;2023-02-28T03:53:46;-1.90;1.00
8709;DHT22;4391;48.678;9.280;2023-02-28T03:56:18;-1.90;1.00
8709;DHT22;4391;48.678;9.280;2023-02-28T03:58:49;-1.90;99.90
8709;DHT22;4391;48.678;9.280;2023-02-28T04:01:20;-1.90;1.00
8709;DHT22;4391;48.678;9.280;2023-02-28T04:03:49;-1.90;1.00
8709;DHT22;4391;48.678;9.280;2023-02-28T04:06:20;-1.90;1.00
8709;DHT22;4391;48.678;9.280;2023-02-28T04:08:48;-1.90;1.00
8709;DHT22;4391;48.678;9.280;2023-02-28T04:11:21;-1.90;1.00
8709;DHT22;4391;48.678;9.280;2023-02-28T04:13:48;-1.80;1.00
8709;DHT22;4391;48.678;9.280;2023-02-28T04:16:15;-1.80;1.00
8709;DHT22;4391;48.678;9.280;2023-02-28T04:18:42;-1.90;1.00
8709;DHT22;4391;48.678;9.280;2023-02-28T04:21:09;-1.80;1.00
8709;DHT22;4391;48.678;9.280;2023-02-28T04:23:38;-1.80;1.00
8709;DHT22;4391;48.678;9.280;2023-02-28T04:26:05;-1.80;1.00
8709;DHT22;4391;48.678;9.280;2023-02-28T04:28:32;-1.70;1.00
8709;DHT22;4391;48.678;9.280;2023-02-28T04:31:00;-1.80;41.10
8709;DHT22;4391;48.678;9.280;2023-02-28T04:33:28;-1.70;99.90
8709;DHT22;4391;48.678;9.280;2023-02-28T04:35:59;-1.70;99.90
8709;DHT22;4391;48.678;9.280;2023-02-28T04:38:26;-1.80;99.90
8709;DHT22;4391;48.678;9.280;2023-02-28T04:40:57;-1.80;1.00
8709;DHT22;4391;48.678;9.280;2023-02-28T04:43:24;-1.70;1.00
8709;DHT22;4391;48.678;9.280;2023-02-28T04:45:52;-1.70;99.90
8709;DHT22;4391;48.678;9.280;2023-02-28T04:48:20;-1.70;99.90
8709;DHT22;4391;48.678;9.280;2023-02-28T04:53:14;-1.70;99.90
8709;DHT22;4391;48.678;9.280;2023-02-28T04:55:41;-1.70;1.00
8709;DHT22;4391;48.678;9.280;2023-02-28T04:58:09;-1.70;1.00
8709;DHT22;4391;48.678;9.280;2023-02-28T05:00:36;-1.70;1.00
8709;DHT22;4391;48.678;9.280;2023-02-28T05:03:03;-1.70;99.90
8709;DHT22;4391;48.678;9.280;2023-02-28T05:05:30;-1.60;1.00
8709;DHT22;4391;48.678;9.280;2023-02-28T05:07:57;-1.70;27.70
8709;DHT22;4391;48.678;9.280;2023-02-28T05:10:23;-1.60;99.90
8709;DHT22;4391;48.678;9.280;2023-02-28T05:12:50;-1.60;1.00
8709;DHT22;4391;48.678;9.280;2023-02-28T05:15:18;-1.60;1.00
8709;DHT22;4391;48.678;9.280;2023-02-28T05:17:45;-1.60;1.00
8709;DHT22;4391;48.678;9.280;2023-02-28T05:20:12;-1.60;99.90
8709;DHT22;4391;48.678;9.280;2023-02-28T05:22:40;-1.60;99.90
8709;DHT22;4391;48.678;9.280;2023-02-28T05:25:08;-1.60;94.90
8709;DHT22;4391;48.678;9.280;2023-02-28T05:27:37;-1.60;1.00
8709;DHT22;4391;48.678;9.280;2023-02-28T05:30:06;-1.60;1.00
8709;DHT22;4391;48.678;9.280;2023-02-28T05:32:37;-1.60;1.00
8709;DHT22;4391;48.678;9.280;2023-02-28T05:35:04;-1.60;99.90
8709;DHT22;4391;48.678;9.280;2023-02-28T05:37:31;-1.60;99.90
8709;DHT22;4391;48.678;9.280;2023-02-28T05:39:58;-1.60;99.90
8709;DHT22;4391;48.678;9.280;2023-02-28T05:42:25;-1.50;1.00
8709;DHT22;4391;48.678;9.280;2023-02-28T05:44:52;-1.50;99.90
8709;DHT22;4391;48.678;9.280;2023-02-28T05:47:19;-1.50;1.00
8709;DHT22;4391;48.678;9.280;2023-02-28T05:49:47;-1.50;41.10
8709;DHT22;4391;48.678;9.280;2023-02-28T05:52:14;-1.50;1.00
8709;DHT22;4391;48.678;9.280;2023-02-28T05:54:41;-1.50;41.10
8709;DHT22;4391;48.678;9.280;2023-02-28T05:57:08;-1.50;99.90
8709;DHT22;4391;48.678;9.280;2023-02-28T05:59:34;-1.50;99.90
8709;DHT22;4391;48.678;9.280;2023-02-28T06:02:05;-1.50;1.00
8709;DHT22;4391;48.678;9.280;2023-02-28T06:04:32;-1.40;13.20
8709;DHT22;4391;48.678;9.280;2023-02-28T06:07:00;-1.40;1.00
8709;DHT22;4391;48.678;9.280;2023-02-28T06:09:28;-1.40;1.00
8709;DHT22;4391;48.678;9.280;2023-02-28T06:11:57;-1.40;99.90
8709;DHT22;4391;48.678;9.280;2023-02-28T06:14:24;-1.30;1.00
8709;DHT22;4391;48.678;9.280;2023-02-28T06:16:51;-1.30;31.00
8709;DHT22;4391;48.678;9.280;2023-02-28T06:19:18;-1.30;1.00
8709;DHT22;4391;48.678;9.280;2023-02-28T06:21:48;-1.30;99.90
8709;DHT22;4391;48.678;9.280;2023-02-28T06:24:17;-1.30;1.00
8709;DHT22;4391;48.678;9.280;2023-02-28T06:26:44;-1.30;99.90
8709;DHT22;4391;48.678;9.280;2023-02-28T06:29:11;-1.30;99.90
8709;DHT22;4391;48.678;9.280;2023-02-28T06:31:42;-1.20;99.90
8709;DHT22;4391;48.678;9.280;2023-02-28T06:34:09;-1.20;99.90
8709;DHT22;4391;48.678;9.280;2023-02-28T06:36:37;-1.20;99.90
8709;DHT22;4391;48.678;9.280;2023-02-28T06:39:04;-1.20;99.90
8709;DHT22;4391;48.678;9.280;2023-02-28T06:41:32;-1.20;99.90
8709;DHT22;4391;48.678;9.280;2023-02-28T06:44:04;-1.20;99.90
8709;DHT22;4391;48.678;9.280;2023-02-28T06:46:32;-1.10;99.90
8709;DHT22;4391;48.678;9.280;2023-02-28T06:48:59;-1.10;99.90
8709;DHT22;4391;48.678;9.280;2023-02-28T06:51:25;-1.10;99.90
8709;DHT22;4391;48.678;9.280;2023-02-28T06:53:52;-1.10;75.90
8709;DHT22;4391;48.678;9.280;2023-02-28T06:56:19;-1.10;99.90
8709;DHT22;4391;48.678;9.280;2023-02-28T06:58:48;-1.10;50.50
8709;DHT22;4391;48.678;9.280;2023-02-28T07:01:16;-1.00;48.20
8709;DHT22;4391;48.678;9.280;2023-02-28T07:03:44;-1.00;99.90
8709;DHT22;4391;48.678;9.280;2023-02-28T07:06:11;-1.00;1.00
8709;DHT22;4391;48.678;9.280;2023-02-28T07:08:38;-0.90;1.00
8709;DHT22;4391;48.678;9.280;2023-02-28T07:11:06;-0.90;15.40
8709;DHT22;4391;48.678;9.280;2023-02-28T07:13:33;-0.90;1.00
8709;DHT22;4391;48.678;9.280;2023-02-28T07:16:03;-0.90;1.00
8709;DHT22;4391;48.678;9.280;2023-02-28T07:18:31;-0.90;1.00
8709;DHT22;4391;48.678;9.280;2023-02-28T07:20:58;-0.90;1.00
8709;DHT22;4391;48.678;9.280;2023-02-28T07:23:25;-0.90;1.00
8709;DHT22;4391;48.678;9.280;2023-02-28T07:25:51;-0.90;99.90
8709;DHT22;4391;48.678;9.280;2023-02-28T07:28:18;-0.70;99.90
8709;DHT22;4391;48.678;9.280;2023-02-28T07:30:45;-0.70;99.90
8709;DHT22;4391;48.678;9.280;2023-02-28T07:33:14;-0.60;1.00
8709;DHT22;4391;48.678;9.280;2023-02-28T07:35:42;-0.60;99.90
8709;DHT22;4391;48.678;9.280;2023-02-28T07:38:08;-0.60;99.90
8709;DHT22;4391;48.678;9.280;2023-02-28T07:40:36;-0.60;1.00
8709;DHT22;4391;48.678;9.280;2023-02-28T07:43:03;-0.50;99.90
8709;DHT22;4391;48.678;9.280;2023-02-28T07:45:30;-0.60;99.90
8709;DHT22;4391;48.678;9.280;2023-02-28T07:48:00;-0.60;99.90
8709;DHT22;4391;48.678;9.280;2023-02-28T07:50:28;-0.60;99.90
8709;DHT22;4391;48.678;9.280;2023-02-28T07:52:56;-0.50;99.90
8709;DHT22;4391;48.678;9.280;2023-02-28T07:55:23;-0.50;99.90
8709;DHT22;4391;48.678;9.280;2023-02-28T07:57:50;-0.50;99.90
8709;DHT22;4391;48.678;9.280;2023-02-28T08:00:17;-0.50;99.90
8709;DHT22;4391;48.678;9.280;2023-02-28T08:02:44;-0.50;99.90
8709;DHT22;4391;48.678;9.280;2023-02-28T08:05:11;-0.40;99.90
8709;DHT22;4391;48.678;9.280;2023-02-28T08:07:39;-0.40;93.40
8709;DHT22;4391;48.678;9.280;2023-02-28T08:10:07;-0.30;88.00
8709;DHT22;4391;48.678;9.280;2023-02-28T08:12:35;-0.40;34.60
8709;DHT22;4391;48.678;9.280;2023-02-28T08:15:02;-0.40;78.80
8709;DHT22;4391;48.678;9.280;2023-02-28T08:17:29;-0.30;29.20
8709;DHT22;4391;48.678;9.280;2023-02-28T08:19:56;-0.30;99.90
8709;DHT22;4391;48.678;9.280;2023-02-28T08:22:23;-0.20;33.70
8709;DHT22;4391;48.678;9.280;2023-02-28T08:24:51;-0.10;1.00
8709;DHT22;4391;48.678;9.280;2023-02-28T08:27:18;-0.20;1.00
8709;DHT22;4391;48.678;9.280;2023-02-28T08:29:44;-0.10;1.00
8709;DHT22;4391;48.678;9.280;2023-02-28T08:32:11;-0.10;1.00
8709;DHT22;4391;48.678;9.280;2023-02-28T08:34:39;0.00;1.00
8709;DHT22;4391;48.678;9.280;2023-02-28T08:37:06;0.00;1.00
8709;DHT22;4391;48.678;9.280;2023-02-28T08:39:34;0.00;1.00
8709;DHT22;4391;48.678;9.280;2023-02-28T08:42:02;0.10;1.00
8709;DHT22;4391;48.678;9.280;2023-02-28T08:44:29;0.10;1.00
8709;DHT22;4391;48.678;9.280;2023-02-28T08:46:59;0.20;1.00
8709;DHT22;4391;48.678;9.280;2023-02-28T08:49:26;0.20;1.00
8709;DHT22;4391;48.678;9.280;2023-02-28T08:51:54;0.30;1.00
8709;DHT22;4391;48.678;9.280;2023-02-28T08:54:22;0.30;1.00
8709;DHT22;4391;48.678;9.280;2023-02-28T08:56:49;0.30;1.00
8709;DHT22;4391;48.678;9.280;2023-02-28T08:59:17;0.30;1.00
8709;DHT22;4391;48.678;9.280;2023-02-28T09:01:44;0.40;1.00
8709;DHT22;4391;48.678;9.280;2023-02-28T09:04:11;0.40;1.00
8709;DHT22;4391;48.678;9.280;2023-02-28T09:06:38;0.40;1.00
8709;DHT22;4391;48.678;9.280;2023-02-28T09:09:05;0.40;99.90
8709;DHT22;4391;48.678;9.280;2023-02-28T09:11:33;0.40;99.90
8709;DHT22;4391;48.678;9.280;2023-02-28T09:14:00;0.50;99.90
8709;DHT22;4391;48.678;9.280;2023-02-28T09:16:30;0.60;99.90
8709;DHT22;4391;48.678;9.280;2023-02-28T09:18:57;0.60;99.90
8709;DHT22;4391;48.678;9.280;2023-02-28T09:21:24;0.50;99.90
8709;DHT22;4391;48.678;9.280;2023-02-28T09:23:51;0.50;99.90
8709;DHT22;4391;48.678;9.280;2023-02-28T09:26:19;0.50;99.90
8709;DHT22;4391;48.678;9.280;2023-02-28T09:28:47;0.40;99.90
8709;DHT22;4391;48.678;9.280;2023-02-28T09:31:15;0.50;99.90
8709;DHT22;4391;48.678;9.280;2023-02-28T09:33:47;0.50;99.90
8709;DHT22;4391;48.678;9.280;2023-02-28T09:36:14;0.60;99.90
8709;DHT22;4391;48.678;9.280;2023-02-28T09:38:41;0.60;99.90
8709;DHT22;4391;48.678;9.280;2023-02-28T09:41:12;0.70;99.90
8709;DHT22;4391;48.678;9.280;2023-02-28T09:43:43;0.70;99.90
8709;DHT22;4391;48.678;9.280;2023-02-28T09:46:18;0.90;99.90
8709;DHT22;4391;48.678;9.280;2023-02-28T09:48:49;1.00;99.90
8709;DHT22;4391;48.678;9.280;2023-02-28T09:51:29;1.00;99.90
8709;DHT22;4391;48.678;9.280;2023-02-28T09:53:57;1.10;99.90
8709;DHT22;4391;48.678;9.280;2023-02-28T09:56:26;1.30;99.90
8709;DHT22;4391;48.678;9.280;2023-02-28T09:58:58;1.50;99.90
8709;DHT22;4391;48.678;9.280;2023-02-28T10:01:33;1.60;99.90
8709;DHT22;4391;48.678;9.280;2023-02-28T10:04:10;1.80;99.90
8709;DHT22;4391;48.678;9.280;2023-02-28T10:06:44;2.00;99.90
8709;DHT22;4391;48.678;9.280;2023-02-28T10:09:14;1.90;99.90
8709;DHT22;4391;48.678;9.280;2023-02-28T10:11:44;2.00;99.90
8709;DHT22;4391;48.678;9.280;2023-02-28T10:14:15;2.10;99.90
8709;DHT22;4391;48.678;9.280;2023-02-28T10:16:45;2.10;99.90
8709;DHT22;4391;48.678;9.280;2023-02-28T10:19:22;2.10;99.90
8709;DHT22;4391;48.678;9.280;2023-02-28T10:21:55;2.10;99.90
8709;DHT22;4391;48.678;9.280;2023-02-28T10:24:27;2.20;99.90
8709;DHT22;4391;48.678;9.280;2023-02-28T10:27:00;2.30;99.90
8709;DHT22;4391;48.678;9.280;2023-02-28T10:29:31;2.20;99.90
8709;DHT22;4391;48.678;9.280;2023-02-28T10:32:01;2.30;99.90
8709;DHT22;4391;48.678;9.280;2023-02-28T10:34:30;2.40;99.90
8709;DHT22;4391;48.678;9.280;2023-02-28T10:36:58;2.60;99.90
8709;DHT22;4391;48.678;9.280;2023-02-28T10:39:40;2.50;99.90
8709;DHT22;4391;48.678;9.280;2023-02-28T10:42:20;2.30;99.90
8709;DHT22;4391;48.678;9.280;2023-02-28T10:45:05;2.60;99.90
8709;DHT22;4391;48.678;9.280;2023-02-28T10:47:33;2.80;99.90
8709;DHT22;4391;48.678;9.280;2023-02-28T10:50:03;3.00;99.90
8709;DHT22;4391;48.678;9.280;2023-02-28T10:52:36;2.90;99.90
8709;DHT22;4391;48.678;9.280;2023-02-28T10:55:20;2.80;99.90
8709;DHT22;4391;48.678;9.280;2023-02-28T10:57:48;2.80;99.90
8709;DHT22;4391;48.678;9.280;2023-02-28T11:00:18;3.10;99.90
8709;DHT22;4391;48.678;9.280;2023-02-28T11:02:45;3.10;99.90
8709;DHT22;4391;48.678;9.280;2023-02-28T11:05:28;3.40;99.90
8709;DHT22;4391;48.678;9.280;2023-02-28T11:07:56;3.60;99.90
8709;DHT22;4391;48.678;9.280;2023-02-28T11:10:29;3.90;99.90
8709;DHT22;4391;48.678;9.280;2023-02-28T11:12:58;3.90;99.90
8709;DHT22;4391;48.678;9.280;2023-02-28T11:15:27;4.10;99.90
8709;DHT22;4391;48.678;9.280;2023-02-28T11:17:54;4.30;99.90
8709;DHT22;4391;48.678;9.280;2023-02-28T11:20:26;4.50;99.90
8709;DHT22;4391;48.678;9.280;2023-02-28T11:22:55;4.50;99.90
8709;DHT22;4391;48.678;9.280;2023-02-28T11:25:25;4.50;99.90
8709;DHT22;4391;48.678;9.280;2023-02-28T11:27:54;4.70;99.90
8709;DHT22;4391;48.678;9.280;2023-02-28T11:30:34;5.20;99.90
8709;DHT22;4391;48.678;9.280;2023-02-28T11:33:16;6.50;99.90
8709;DHT22;4391;48.678;9.280;2023-02-28T11:35:48;7.20;99.90
8709;DHT22;4391;48.678;9.280;2023-02-28T11:38:15;7.70;99.90
8709;DHT22;4391;48.678;9.280;2023-02-28T11:40:48;7.80;99.90
8709;DHT22;4391;48.678;9.280;2023-02-28T11:43:27;7.70;99.90
8709;DHT22;4391;48.678;9.280;2023-02-28T11:46:10;7.80;99.90
8709;DHT22;4391;48.678;9.280;2023-02-28T11:48:45;7.90;99.90
8709;DHT22;4391;48.678;9.280;2023-02-28T11:51:21;8.30;99.90
8709;DHT22;4391;48.678;9.280;2023-02-28T11:54:04;7.70;99.90
8709;DHT22;4391;48.678;9.280;2023-02-28T11:56:36;7.60;99.90
8709;DHT22;4391;48.678;9.280;2023-02-28T11:59:27;7.50;99.90
8709;DHT22;4391;48.678;9.280;2023-02-28T12:02:26;7.00;99.90
8709;DHT22;4391;48.678;9.280;2023-02-28T12:05:11;7.00;99.90
8709;DHT22;4391;48.678;9.280;2023-02-28T12:07:50;7.50;99.90
8709;DHT22;4391;48.678;9.280;2023-02-28T12:10:24;7.90;99.90
8709;DHT22;4391;48.678;9.280;2023-02-28T12:13:04;8.00;99.90
8709;DHT22;4391;48.678;9.280;2023-02-28T12:15:58;8.00;99.90
8709;DHT22;4391;48.678;9.280;2023-02-28T12:18:47;7.70;99.90
8709;DHT22;4391;48.678;9.280;2023-02-28T12:21:24;8.20;99.90
8709;DHT22;4391;48.678;9.280;2023-02-28T12:24:20;9.00;99.90
8709;DHT22;4391;48.678;9.280;2023-02-28T12:26:50;9.50;99.90
8709;DHT22;4391;48.678;9.280;2023-02-28T12:29:21;11.60;99.90
8709;DHT22;4391;48.678;9.280;2023-02-28T12:31:52;13.20;99.90
8709;DHT22;4391;48.678;9.280;2023-02-28T12:34:22;14.70;99.90
8709;DHT22;4391;48.678;9.280;2023-02-28T12:36:52;15.20;99.90
8709;DHT22;4391;48.678;9.280;2023-02-28T12:39:25;15.50;99.90
8709;DHT22;4391;48.678;9.280;2023-02-28T12:41:55;16.50;99.90
8709;DHT22;4391;48.678;9.280;2023-02-28T12:44:27;16.20;99.90
8709;DHT22;4391;48.678;9.280;2023-02-28T12:46:58;17.30;99.90
8709;DHT22;4391;48.678;9.280;2023-02-28T12:49:29;17.80;99.90
8709;DHT22;4391;48.678;9.280;2023-02-28T12:51:59;18.20;99.90
8709;DHT22;4391;48.678;9.280;2023-02-28T12:54:31;17.30;99.90
8709;DHT22;4391;48.678;9.280;2023-02-28T12:57:05;17.70;99.90
8709;DHT22;4391;48.678;9.280;2023-02-28T12:59:37;18.00;99.90
8709;DHT22;4391;48.678;9.280;2023-02-28T13:02:32;18.40;99.90
8709;DHT22;4391;48.678;9.280;2023-02-28T13:05:26;18.40;99.90
8709;DHT22;4391;48.678;9.280;2023-02-28T13:11:03;20.30;99.90
8709;DHT22;4391;48.678;9.280;2023-02-28T13:13:31;20.80;99.90
8709;DHT22;4391;48.678;9.280;2023-02-28T13:16:00;20.70;99.90
8709;DHT22;4391;48.678;9.280;2023-02-28T13:18:31;20.70;99.90
8709;DHT22;4391;48.678;9.280;2023-02-28T13:20:58;20.70;99.90
8709;DHT22;4391;48.678;9.280;2023-02-28T13:23:57;21.00;99.90
8709;DHT22;4391;48.678;9.280;2023-02-28T13:29:36;22.30;99.90
8709;DHT22;4391;48.678;9.280;2023-02-28T13:32:38;22.80;99.90
8709;DHT22;4391;48.678;9.280;2023-02-28T13:44:00;22.30;99.90
8709;DHT22;4391;48.678;9.280;2023-02-28T13:46:29;22.70;99.90
8709;DHT22;4391;48.678;9.280;2023-02-28T13:48:56;22.70;99.90
8709;DHT22;4391;48.678;9.280;2023-02-28T13:51:35;23.00;99.90
8709;DHT22;4391;48.678;9.280;2023-02-28T13:54:17;23.20;99.90
8709;DHT22;4391;48.678;9.280;2023-02-28T13:56:56;22.90;99.90
8709;DHT22;4391;48.678;9.280;2023-02-28T13:59:31;23.10;99.90
8709;DHT22;4391;48.678;9.280;2023-02-28T14:02:17;23.10;99.90
8709;DHT22;4391;48.678;9.280;2023-02-28T14:05:04;23.20;99.90
8709;DHT22;4391;48.678;9.280;2023-02-28T14:07:36;22.10;99.90
8709;DHT22;4391;48.678;9.280;2023-02-28T14:10:06;22.50;99.90
8709;DHT22;4391;48.678;9.280;2023-02-28T14:12:54;22.90;99.90
8709;DHT22;4391;48.678;9.280;2023-02-28T14:15:55;22.40;99.90
8709;DHT22;4391;48.678;9.280;2023-02-28T14:18:28;22.70;99.90
8709;DHT22;4391;48.678;9.280;2023-02-28T14:21:01;22.70;99.90
8709;DHT22;4391;48.678;9.280;2023-02-28T14:23:50;22.10;99.90
8709;DHT22;4391;48.678;9.280;2023-02-28T14:26:44;21.70;99.90
8709;DHT22;4391;48.678;9.280;2023-02-28T14:29:38;21.60;99.90
8709;DHT22;4391;48.678;9.280;2023-02-28T14:32:14;21.80;99.90
8709;DHT22;4391;48.678;9.280;2023-02-28T14:34:51;21.30;99.90
8709;DHT22;4391;48.678;9.280;2023-02-28T14:37:23;21.10;99.90
8709;DHT22;4391;48.678;9.280;2023-02-28T14:39:53;20.30;99.90
8709;DHT22;4391;48.678;9.280;2023-02-28T14:42:29;20.40;99.90
8709;DHT22;4391;48.678;9.280;2023-02-28T14:44:57;19.90;99.90
8709;DHT22;4391;48.678;9.280;2023-02-28T14:47:27;19.10;99.90
8709;DHT22;4391;48.678;9.280;2023-02-28T14:49:57;19.00;99.90
8709;DHT22;4391;48.678;9.280;2023-02-28T14:52:26;19.20;99.90
8709;DHT22;4391;48.678;9.280;2023-02-28T14:54:56;19.00;99.90
8709;DHT22;4391;48.678;9.280;2023-02-28T14:57:28;18.90;99.90
8709;DHT22;4391;48.678;9.280;2023-02-28T15:00:00;18.40;99.90
8709;DHT22;4391;48.678;9.280;2023-02-28T15:02:33;18.30;99.90
8709;DHT22;4391;48.678;9.280;2023-02-28T15:05:16;17.30;99.90
8709;DHT22;4391;48.678;9.280;2023-02-28T15:07:46;16.50;99.90
8709;DHT22;4391;48.678;9.280;2023-02-28T15:10:17;15.80;99.90
8709;DHT22;4391;48.678;9.280;2023-02-28T15:12:49;15.70;99.90
8709;DHT22;4391;48.678;9.280;2023-02-28T15:15:19;15.70;99.90
8709;DHT22;4391;48.678;9.280;2023-02-28T15:17:50;15.20;99.90
8709;DHT22;4391;48.678;9.280;2023-02-28T15:20:20;14.80;99.90
8709;DHT22;4391;48.678;9.280;2023-02-28T15:22:50;14.70;99.90
8709;DHT22;4391;48.678;9.280;2023-02-28T15:25:20;15.20;99.90
8709;DHT22;4391;48.678;9.280;2023-02-28T15:27:50;15.40;99.90
8709;DHT22;4391;48.678;9.280;2023-02-28T15:30:19;15.60;99.90
8709;DHT22;4391;48.678;9.280;2023-02-28T15:33:02;15.70;99.90
8709;DHT22;4391;48.678;9.280;2023-02-28T15:35:32;15.80;99.90
8709;DHT22;4391;48.678;9.280;2023-02-28T15:38:02;15.40;99.90
8709;DHT22;4391;48.678;9.280;2023-02-28T15:40:32;15.90;99.90
8709;DHT22;4391;48.678;9.280;2023-02-28T15:43:11;15.90;99.90
8709;DHT22;4391;48.678;9.280;2023-02-28T15:45:43;15.80;99.90
8709;DHT22;4391;48.678;9.280;2023-02-28T15:48:16;15.00;99.90
8709;DHT22;4391;48.678;9.280;2023-02-28T15:50:47;14.60;99.90
8709;DHT22;4391;48.678;9.280;2023-02-28T15:53:17;14.50;99.90
8709;DHT22;4391;48.678;9.280;2023-02-28T15:55:52;14.40;99.90
8709;DHT22;4391;48.678;9.280;2023-02-28T15:58:20;13.60;99.90
8709;DHT22;4391;48.678;9.280;2023-02-28T16:01:01;13.20;99.90
8709;DHT22;4391;48.678;9.280;2023-02-28T16:03:38;12.60;99.90
8709;DHT22;4391;48.678;9.280;2023-02-28T16:06:26;12.40;99.90
8709;DHT22;4391;48.678;9.280;2023-02-28T16:08:55;11.70;99.90
8709;DHT22;4391;48.678;9.280;2023-02-28T16:11:22;11.50;99.90
8709;DHT22;4391;48.678;9.280;2023-02-28T16:13:50;10.70;99.90
8709;DHT22;4391;48.678;9.280;2023-02-28T16:16:18;10.20;99.90
8709;DHT22;4391;48.678;9.280;2023-02-28T16:18:46;9.70;99.90
8709;DHT22;4391;48.678;9.280;2023-02-28T16:21:14;9.20;99.90
8709;DHT22;4391;48.678;9.280;2023-02-28T16:23:41;9.00;99.90
8709;DHT22;4391;48.678;9.280;2023-02-28T16:26:09;8.60;99.90
8709;DHT22;4391;48.678;9.280;2023-02-28T16:28:41;8.00;99.90
8709;DHT22;4391;48.678;9.280;2023-02-28T16:31:09;7.30;99.90
8709;DHT22;4391;48.678;9.280;2023-02-28T16:33:42;6.70;99.90
8709;DHT22;4391;48.678;9.280;2023-02-28T16:36:15;6.20;99.90
8709;DHT22;4391;48.678;9.280;2023-02-28T16:38:42;5.90;99.70
8709;DHT22;4391;48.678;9.280;2023-02-28T16:41:12;5.60;98.90
8709;DHT22;4391;48.678;9.280;2023-02-28T16:43:42;5.30;98.20
8709;DHT22;4391;48.678;9.280;2023-02-28T16:46:11;5.00;97.00
8709;DHT22;4391;48.678;9.280;2023-02-28T16:48:38;4.80;96.90
8709;DHT22;4391;48.678;9.280;2023-02-28T16:53:35;4.40;96.50
8709;DHT22;4391;48.678;9.280;2023-02-28T16:56:02;4.20;96.70
8709;DHT22;4391;48.678;9.280;2023-02-28T16:58:29;4.00;96.80
8709;DHT22;4391;48.678;9.280;2023-02-28T17:00:56;3.90;97.10